createdAt,value
2019-04-03T00:00:34.586Z,7.40
2019-04-03T00:03:04.069Z,7.40
2019-04-03T00:05:31.610Z,7.40
2019-04-03T00:07:59.014Z,7.40
2019-04-03T00:10:26.408Z,7.40
2019-04-03T00:12:53.984Z,7.40
2019-04-03T00:15:21.411Z,7.50
2019-04-03T00:17:49.065Z,7.50
2019-04-03T00:20:18.025Z,7.50
2019-04-03T00:22:46.624Z,7.50
2019-04-03T00:25:14.181Z,7.50
2019-04-03T00:27:41.601Z,7.50
2019-04-03T00:30:09.610Z,7.50
2019-04-03T00:32:37.021Z,7.50
2019-04-03T00:35:05.219Z,7.50
2019-04-03T00:37:32.623Z,7.50
2019-04-03T00:40:00.020Z,7.50
2019-04-03T00:42:27.474Z,7.50
2019-04-03T00:44:55.004Z,7.50
2019-04-03T00:47:23.815Z,7.50
2019-04-03T00:49:51.669Z,7.50
2019-04-03T00:52:19.100Z,7.50
2019-04-03T00:54:46.526Z,7.50
2019-04-03T00:57:13.931Z,7.50
2019-04-03T00:59:41.344Z,7.50
2019-04-03T01:02:08.749Z,7.50
2019-04-03T01:04:36.143Z,7.50
2019-04-03T01:07:03.658Z,7.50
2019-04-03T01:09:31.095Z,7.50
2019-04-03T01:11:58.781Z,7.50
2019-04-03T01:14:27.919Z,7.50
2019-04-03T01:16:55.338Z,7.50
2019-04-03T01:19:23.022Z,7.50
2019-04-03T01:21:50.419Z,7.50
2019-04-03T01:24:17.828Z,7.50
2019-04-03T01:26:45.150Z,7.50
2019-04-03T01:29:12.815Z,7.50
2019-04-03T01:31:40.469Z,7.50
2019-04-03T01:34:07.959Z,7.50
2019-04-03T01:36:35.354Z,7.50
2019-04-03T01:39:04.798Z,7.40
2019-04-03T01:41:32.190Z,7.40
2019-04-03T01:43:59.587Z,7.50
2019-04-03T01:46:27.763Z,7.40
2019-04-03T01:48:56.719Z,7.40
2019-04-03T01:51:24.647Z,7.40
2019-04-03T01:53:52.070Z,7.40
2019-04-03T01:56:19.535Z,7.30
2019-04-03T01:58:46.946Z,7.30
2019-04-03T02:01:14.362Z,7.30
2019-04-03T02:03:42.237Z,7.30
2019-04-03T02:06:09.603Z,7.30
2019-04-03T02:08:37.109Z,7.20
2019-04-03T02:11:04.394Z,7.20
2019-04-03T02:13:31.866Z,7.30
2019-04-03T02:15:59.386Z,7.20
2019-04-03T02:18:26.831Z,7.30
2019-04-03T02:20:54.250Z,7.20
2019-04-03T02:23:21.643Z,7.20
2019-04-03T02:25:49.106Z,7.20
2019-04-03T02:28:16.566Z,7.20
2019-04-03T02:30:46.009Z,7.20
2019-04-03T02:33:13.260Z,7.10
2019-04-03T02:35:41.044Z,7.10
2019-04-03T02:38:08.505Z,7.10
2019-04-03T02:40:36.979Z,7.10
2019-04-03T02:43:04.499Z,7.10
2019-04-03T02:45:32.003Z,7.10
2019-04-03T02:47:59.399Z,7.10
2019-04-03T02:50:26.812Z,7.10
2019-04-03T02:52:58.241Z,7.10
2019-04-03T02:55:24.179Z,7.10
2019-04-03T02:57:52.067Z,7.10
2019-04-03T03:00:19.579Z,7.10
2019-04-03T03:02:47.303Z,7.10
2019-04-03T03:05:14.693Z,7.10
2019-04-03T03:07:42.208Z,7.10
2019-04-03T03:10:09.908Z,7.10
2019-04-03T03:12:38.164Z,7.00
2019-04-03T03:15:10.684Z,7.00
2019-04-03T03:17:36.698Z,7.10
2019-04-03T03:20:07.491Z,7.00
2019-04-03T03:22:36.610Z,7.00
2019-04-03T03:25:05.338Z,7.10
2019-04-03T03:27:33.703Z,7.00
2019-04-03T03:30:02.338Z,7.00
2019-04-03T03:32:34.954Z,7.00
2019-04-03T03:35:09.534Z,7.00
2019-04-03T03:37:34.387Z,6.90
2019-04-03T03:40:01.204Z,6.90
2019-04-03T03:42:32.051Z,6.90
2019-04-03T03:45:02.189Z,6.90
2019-04-03T03:47:35.109Z,6.90
2019-04-03T03:50:01.643Z,6.90
2019-04-03T03:52:29.878Z,6.90
2019-04-03T03:54:57.965Z,6.90
2019-04-03T03:57:26.556Z,6.90
2019-04-03T03:59:54.012Z,6.90
2019-04-03T04:02:21.750Z,7.00
2019-04-03T04:04:49.926Z,7.00
2019-04-03T04:07:18.090Z,7.00
2019-04-03T04:09:49.682Z,7.10
2019-04-03T04:12:15.282Z,7.10
2019-04-03T04:14:42.668Z,7.10
2019-04-03T04:17:15.513Z,7.10
2019-04-03T04:19:40.203Z,7.10
2019-04-03T04:22:07.821Z,7.10
2019-04-03T04:24:35.806Z,7.10
2019-04-03T04:27:03.584Z,7.10
2019-04-03T04:29:31.060Z,7.10
2019-04-03T04:31:58.451Z,7.00
2019-04-03T04:34:25.837Z,7.00
2019-04-03T04:36:55.391Z,7.00
2019-04-03T04:39:22.722Z,7.00
2019-04-03T04:41:50.164Z,7.00
2019-04-03T04:44:17.571Z,7.00
2019-04-03T04:46:45.054Z,7.10
2019-04-03T04:49:12.431Z,7.00
2019-04-03T04:51:39.811Z,7.00
2019-04-03T04:54:07.256Z,7.10
2019-04-03T04:56:35.786Z,7.10
2019-04-03T04:59:03.851Z,7.10
2019-04-03T05:01:31.249Z,7.10
2019-04-03T05:03:58.663Z,7.10
2019-04-03T05:06:28.526Z,7.10
2019-04-03T05:08:55.264Z,7.10
2019-04-03T05:11:22.714Z,7.10
2019-04-03T05:13:50.157Z,7.00
2019-04-03T05:16:20.198Z,7.00
2019-04-03T05:18:46.810Z,7.00
2019-04-03T05:21:14.368Z,7.00
2019-04-03T05:23:41.832Z,7.10
2019-04-03T05:26:09.231Z,7.10
2019-04-03T05:28:36.672Z,7.10
2019-04-03T05:31:04.079Z,7.10
2019-04-03T05:33:31.492Z,7.10
2019-04-03T05:35:58.994Z,7.20
2019-04-03T05:38:26.582Z,7.20
2019-04-03T05:40:54.710Z,7.30
2019-04-03T05:43:23.524Z,7.30
2019-04-03T05:45:50.955Z,7.30
2019-04-03T05:48:18.557Z,7.30
2019-04-03T05:50:46.203Z,7.30
2019-04-03T05:53:13.686Z,7.20
2019-04-03T05:55:41.738Z,7.20
2019-04-03T05:58:09.398Z,7.20
2019-04-03T06:00:38.372Z,7.20
2019-04-03T06:03:05.998Z,7.20
2019-04-03T06:05:33.456Z,7.20
2019-04-03T06:08:00.843Z,7.30
2019-04-03T06:10:29.821Z,7.30
2019-04-03T06:12:57.504Z,7.30
2019-04-03T06:15:25.049Z,7.30
2019-04-03T06:17:54.262Z,7.30
2019-04-03T06:20:21.726Z,7.30
2019-04-03T06:22:49.836Z,7.30
2019-04-03T06:25:17.952Z,7.30
2019-04-03T06:27:46.394Z,7.30
2019-04-03T06:30:14.145Z,7.40
2019-04-03T06:32:41.562Z,7.30
2019-04-03T06:35:09.166Z,7.30
2019-04-03T06:37:36.584Z,7.30
2019-04-03T06:40:04.854Z,7.30
2019-04-03T06:42:32.268Z,7.30
2019-04-03T06:44:59.691Z,7.30
2019-04-03T06:47:27.118Z,7.30
2019-04-03T06:49:54.530Z,7.40
2019-04-03T06:52:22.148Z,7.50
2019-04-03T06:54:49.762Z,7.50
2019-04-03T06:57:17.167Z,7.50
2019-04-03T06:59:44.574Z,7.40
2019-04-03T07:02:12.002Z,7.40
2019-04-03T07:04:39.398Z,7.40
2019-04-03T07:07:07.090Z,7.40
2019-04-03T07:09:36.703Z,7.40
2019-04-03T07:12:03.840Z,7.40
2019-04-03T07:14:31.279Z,7.50
2019-04-03T07:17:01.311Z,7.60
2019-04-03T07:19:27.921Z,7.60
2019-04-03T07:21:55.966Z,7.50
2019-04-03T07:24:23.542Z,7.50
2019-04-03T07:26:50.973Z,7.50
2019-04-03T07:29:18.566Z,7.50
2019-04-03T07:31:45.996Z,7.40
2019-04-03T07:34:13.377Z,7.40
2019-04-03T07:36:41.475Z,7.30
2019-04-03T07:39:11.132Z,7.30
2019-04-03T07:41:41.115Z,7.20
2019-04-03T07:44:07.866Z,7.20
2019-04-03T07:46:35.293Z,7.30
2019-04-03T07:49:02.688Z,7.50
2019-04-03T07:51:30.348Z,7.80
2019-04-03T07:53:57.701Z,8.00
2019-04-03T07:56:25.899Z,8.10
2019-04-03T07:58:53.912Z,8.20
2019-04-03T08:01:21.348Z,8.20
2019-04-03T08:03:51.661Z,8.30
2019-04-03T08:06:18.108Z,8.30
2019-04-03T08:08:45.534Z,8.40
2019-04-03T08:11:14.815Z,8.50
2019-04-03T08:13:42.159Z,8.60
2019-04-03T08:16:09.559Z,8.70
2019-04-03T08:18:36.964Z,8.60
2019-04-03T08:21:04.391Z,8.50
2019-04-03T08:23:31.796Z,8.50
2019-04-03T08:25:59.219Z,8.60
2019-04-03T08:28:29.668Z,8.70
2019-04-03T08:30:55.834Z,8.70
2019-04-03T08:33:26.301Z,8.70
2019-04-03T08:35:52.467Z,8.80
2019-04-03T08:38:19.867Z,8.80
2019-04-03T08:40:47.499Z,8.80
2019-04-03T08:43:15.138Z,8.70
2019-04-03T08:45:42.597Z,8.70
2019-04-03T08:48:09.892Z,8.60
2019-04-03T08:50:37.711Z,8.60
2019-04-03T08:53:05.835Z,8.60
2019-04-03T08:55:34.609Z,8.60
2019-04-03T08:58:02.053Z,8.70
2019-04-03T09:00:31.573Z,8.90
2019-04-03T09:02:58.999Z,8.90
2019-04-03T09:05:26.463Z,8.40
2019-04-03T09:07:56.099Z,7.90
2019-04-03T09:10:23.571Z,7.60
2019-04-03T09:12:51.283Z,7.30
2019-04-03T09:15:18.719Z,7.20
2019-04-03T09:17:46.110Z,7.10
2019-04-03T09:20:14.359Z,7.10
2019-04-03T09:22:41.842Z,7.10
2019-04-03T09:25:09.728Z,7.20
2019-04-03T09:27:39.400Z,7.30
2019-04-03T09:30:09.846Z,7.40
2019-04-03T09:32:37.552Z,7.60
2019-04-03T09:35:07.127Z,7.80
2019-04-03T09:37:37.162Z,7.80
2019-04-03T09:40:04.283Z,7.90
2019-04-03T09:42:31.686Z,7.90
2019-04-03T09:44:59.128Z,8.00
2019-04-03T09:47:26.540Z,8.10
2019-04-03T09:49:54.241Z,8.20
2019-04-03T09:52:23.582Z,8.30
2019-04-03T09:54:50.970Z,8.50
2019-04-03T09:57:18.376Z,8.70
2019-04-03T09:59:45.787Z,8.90
2019-04-03T10:02:13.511Z,8.90
2019-04-03T10:04:40.923Z,8.90
2019-04-03T10:07:08.447Z,9.00
2019-04-03T10:09:38.343Z,8.90
2019-04-03T10:12:05.075Z,8.90
2019-04-03T10:14:32.876Z,8.90
2019-04-03T10:17:00.262Z,8.90
2019-04-03T10:19:28.008Z,8.90
2019-04-03T10:21:55.490Z,8.90
2019-04-03T10:24:22.890Z,8.90
2019-04-03T10:26:50.322Z,8.90
2019-04-03T10:29:19.099Z,9.00
2019-04-03T10:31:46.923Z,9.10
2019-04-03T10:34:14.783Z,9.10
2019-04-03T10:36:43.407Z,9.20
2019-04-03T10:39:12.694Z,9.20
2019-04-03T10:41:40.115Z,9.20
2019-04-03T10:44:09.730Z,9.30
2019-04-03T10:46:38.290Z,9.40
2019-04-03T10:49:05.658Z,9.50
2019-04-03T10:51:33.055Z,9.50
2019-04-03T10:54:00.764Z,9.60
2019-04-03T10:56:30.758Z,9.60
2019-04-03T10:59:09.895Z,9.60
2019-04-03T11:01:26.645Z,9.70
2019-04-03T11:03:54.103Z,9.80
2019-04-03T11:06:21.453Z,9.90
2019-04-03T11:08:49.115Z,10.00
2019-04-03T11:11:16.550Z,10.10
2019-04-03T11:13:43.944Z,10.30
2019-04-03T11:16:11.441Z,10.30
2019-04-03T11:18:38.948Z,10.30
2019-04-03T11:21:06.877Z,10.20
2019-04-03T11:23:39.963Z,10.20
2019-04-03T11:26:04.245Z,10.20
2019-04-03T11:28:31.722Z,10.20
2019-04-03T11:31:01.233Z,10.20
2019-04-03T11:33:28.700Z,10.30
2019-04-03T11:35:56.438Z,10.40
2019-04-03T11:38:27.993Z,10.50
2019-04-03T11:40:53.066Z,10.70
2019-04-03T11:43:20.863Z,10.80
2019-04-03T11:45:48.475Z,11.00
2019-04-03T11:48:17.293Z,11.00
2019-04-03T11:50:45.311Z,11.00
2019-04-03T11:53:12.810Z,11.20
2019-04-03T11:55:41.957Z,11.30
2019-04-03T11:58:09.454Z,11.30
2019-04-03T12:00:42.365Z,11.30
2019-04-03T12:03:11.450Z,11.20
2019-04-03T12:05:39.301Z,11.20
2019-04-03T12:08:06.803Z,11.10
2019-04-03T12:10:35.119Z,11.00
2019-04-03T12:13:04.302Z,10.80
2019-04-03T12:15:33.960Z,10.70
2019-04-03T12:18:02.478Z,10.50
2019-04-03T12:20:30.524Z,10.50
2019-04-03T12:22:58.087Z,10.60
2019-04-03T12:25:25.522Z,10.70
2019-04-03T12:27:52.925Z,10.70
2019-04-03T12:30:20.606Z,10.80
2019-04-03T12:32:50.056Z,10.80
2019-04-03T12:35:17.515Z,10.90
2019-04-03T12:37:44.944Z,10.90
2019-04-03T12:40:12.593Z,10.80
2019-04-03T12:42:40.151Z,10.70
2019-04-03T12:45:08.466Z,10.50
2019-04-03T12:47:36.161Z,10.30
2019-04-03T12:50:06.316Z,10.20
2019-04-03T12:52:33.694Z,10.30
2019-04-03T12:55:01.100Z,10.40
2019-04-03T12:57:28.506Z,10.50
2019-04-03T12:59:55.919Z,10.40
2019-04-03T13:02:23.501Z,10.30
2019-04-03T13:04:50.910Z,10.20
2019-04-03T13:07:18.454Z,10.10
2019-04-03T13:09:45.896Z,10.10
2019-04-03T13:12:13.311Z,10.00
2019-04-03T13:14:40.698Z,9.90
2019-04-03T13:17:08.463Z,9.90
2019-04-03T13:19:35.902Z,9.90
2019-04-03T13:22:03.523Z,9.90
2019-04-03T13:24:31.417Z,9.90
2019-04-03T13:26:59.614Z,9.90
2019-04-03T13:29:27.207Z,10.00
2019-04-03T13:31:54.957Z,10.20
2019-04-03T13:34:22.417Z,10.40
2019-04-03T13:36:51.386Z,10.60
2019-04-03T13:39:19.059Z,10.80
2019-04-03T13:41:46.442Z,10.80
2019-04-03T13:44:13.967Z,10.80
2019-04-03T13:46:41.208Z,10.70
2019-04-03T13:49:08.273Z,10.60
2019-04-03T13:51:35.691Z,10.70
2019-04-03T13:54:03.297Z,10.70
2019-04-03T13:56:30.694Z,10.70
2019-04-03T13:58:58.131Z,10.70
2019-04-03T14:01:27.611Z,10.70
2019-04-03T14:03:54.755Z,10.70
2019-04-03T14:06:22.156Z,10.80
2019-04-03T14:08:49.872Z,10.60
2019-04-03T14:11:17.754Z,10.60
2019-04-03T14:13:45.510Z,10.20
2019-04-03T14:16:19.841Z,9.60
2019-04-03T14:18:42.556Z,9.10
2019-04-03T14:21:10.122Z,9.00
2019-04-03T14:23:39.864Z,8.80
2019-04-03T14:26:08.461Z,8.80
2019-04-03T14:28:35.988Z,8.90
2019-04-03T14:31:05.078Z,9.00
2019-04-03T14:33:43.285Z,9.10
2019-04-03T14:36:01.771Z,9.00
2019-04-03T14:38:29.261Z,9.10
2019-04-03T14:40:57.127Z,9.00
2019-04-03T14:43:24.599Z,9.00
2019-04-03T14:45:52.006Z,9.00
2019-04-03T14:48:19.446Z,9.00
2019-04-03T14:50:46.814Z,9.10
2019-04-03T14:53:14.835Z,9.20
2019-04-03T14:55:48.211Z,9.30
2019-04-03T14:58:11.535Z,9.50
2019-04-03T15:00:39.018Z,9.50
2019-04-03T15:03:06.378Z,9.60
2019-04-03T15:05:34.278Z,9.60
2019-04-03T15:08:02.105Z,9.60
2019-04-03T15:10:32.138Z,9.60
2019-04-03T15:13:00.063Z,9.60
2019-04-03T15:15:28.643Z,9.70
2019-04-03T15:17:56.664Z,9.80
2019-04-03T15:20:24.170Z,9.80
2019-04-03T15:22:51.701Z,10.00
2019-04-03T15:25:20.702Z,10.00
2019-04-03T15:27:48.369Z,10.10
2019-04-03T15:30:16.940Z,10.20
2019-04-03T15:32:44.670Z,10.20
2019-04-03T15:35:12.504Z,10.20
2019-04-03T15:37:41.474Z,10.30
2019-04-03T15:40:09.476Z,10.30
2019-04-03T15:42:39.826Z,10.30
2019-04-03T15:45:06.907Z,10.30
2019-04-03T15:47:38.699Z,10.20
2019-04-03T15:50:04.809Z,10.20
2019-04-03T15:52:32.584Z,10.20
2019-04-03T15:55:00.157Z,10.10
2019-04-03T15:57:27.664Z,10.00
2019-04-03T15:59:55.079Z,9.90
2019-04-03T16:02:22.684Z,9.40
2019-04-03T16:04:50.372Z,9.00
2019-04-03T16:07:18.393Z,8.70
2019-04-03T16:09:45.839Z,8.50
2019-04-03T16:12:13.617Z,8.20
2019-04-03T16:14:41.054Z,8.10
2019-04-03T16:17:08.775Z,8.10
2019-04-03T16:19:36.818Z,8.00
2019-04-03T16:22:04.210Z,8.00
2019-04-03T16:24:31.607Z,8.00
2019-04-03T16:26:59.412Z,8.00
2019-04-03T16:29:27.292Z,8.00
2019-04-03T16:31:56.048Z,8.00
2019-04-03T16:34:23.466Z,8.10
2019-04-03T16:36:50.886Z,8.00
2019-04-03T16:39:18.289Z,8.00
2019-04-03T16:41:45.699Z,7.90
2019-04-03T16:44:13.122Z,7.90
2019-04-03T16:46:41.575Z,7.80
2019-04-03T16:49:09.566Z,7.70
2019-04-03T16:51:37.028Z,7.60
2019-04-03T16:54:04.540Z,7.60
2019-04-03T16:56:32.497Z,7.70
2019-04-03T16:59:01.109Z,7.70
2019-04-03T17:01:33.703Z,7.70
2019-04-03T17:04:03.979Z,7.70
2019-04-03T17:06:30.482Z,7.70
2019-04-03T17:08:58.681Z,7.60
2019-04-03T17:11:27.259Z,7.60
2019-04-03T17:13:54.806Z,7.50
2019-04-03T17:16:22.509Z,7.50
2019-04-03T17:18:50.044Z,7.50
2019-04-03T17:21:17.793Z,7.40
2019-04-03T17:23:46.157Z,7.40
2019-04-03T17:26:14.472Z,7.30
2019-04-03T17:28:41.898Z,7.30
2019-04-03T17:31:09.299Z,7.20
2019-04-03T17:33:36.685Z,7.20
2019-04-03T17:36:04.093Z,7.20
2019-04-03T17:38:32.607Z,7.20
2019-04-03T17:41:00.722Z,7.20
2019-04-03T17:43:28.131Z,7.30
2019-04-03T17:45:55.562Z,7.30
2019-04-03T17:48:24.893Z,7.40
2019-04-03T17:50:52.189Z,7.50
2019-04-03T17:53:19.610Z,7.50
2019-04-03T17:55:47.055Z,7.50
2019-04-03T17:58:16.576Z,7.60
2019-04-03T18:00:43.660Z,7.60
2019-04-03T18:03:11.074Z,7.60
2019-04-03T18:05:38.490Z,7.60
2019-04-03T18:08:05.906Z,7.60
2019-04-03T18:10:33.310Z,7.60
2019-04-03T18:13:00.755Z,7.70
2019-04-03T18:15:28.159Z,7.70
2019-04-03T18:17:56.180Z,7.60
2019-04-03T18:20:23.706Z,7.60
2019-04-03T18:22:51.266Z,7.50
2019-04-03T18:25:19.257Z,7.50
2019-04-03T18:27:46.674Z,7.40
2019-04-03T18:30:14.281Z,7.30
2019-04-03T18:32:41.702Z,7.20
2019-04-03T18:35:09.344Z,7.10
2019-04-03T18:37:36.782Z,7.00
2019-04-03T18:40:05.775Z,6.90
2019-04-03T18:42:33.241Z,6.80
2019-04-03T18:45:00.651Z,6.80
2019-04-03T18:47:35.423Z,6.70
2019-04-03T18:49:57.362Z,6.60
2019-04-03T18:52:24.717Z,6.60
2019-04-03T18:54:52.127Z,6.50
2019-04-03T18:57:19.582Z,6.40
2019-04-03T18:59:47.004Z,6.40
2019-04-03T19:02:14.409Z,6.40
2019-04-03T19:04:41.827Z,6.40
2019-04-03T19:07:09.410Z,6.30
2019-04-03T19:09:36.822Z,6.30
2019-04-03T19:12:08.615Z,6.30
2019-04-03T19:14:33.505Z,6.30
2019-04-03T19:17:01.080Z,6.30
2019-04-03T19:19:28.662Z,6.30
2019-04-03T19:21:56.137Z,6.30
2019-04-03T19:24:24.682Z,6.30
2019-04-03T19:26:52.740Z,6.30
2019-04-03T19:29:20.123Z,6.30
2019-04-03T19:31:47.693Z,6.30
2019-04-03T19:34:19.760Z,6.30
2019-04-03T19:36:44.355Z,6.30
2019-04-03T19:39:11.980Z,6.30
2019-04-03T19:41:40.990Z,6.30
2019-04-03T19:44:08.638Z,6.30
2019-04-03T19:46:36.061Z,6.30
2019-04-03T19:49:03.582Z,6.30
2019-04-03T19:51:31.011Z,6.40
2019-04-03T19:53:59.795Z,6.40
2019-04-03T19:56:27.474Z,6.40
2019-04-03T19:58:55.006Z,6.40
2019-04-03T20:01:23.991Z,6.40
2019-04-03T20:03:51.570Z,6.40
2019-04-03T20:06:19.025Z,6.40
2019-04-03T20:08:46.462Z,6.50
2019-04-03T20:11:13.882Z,6.60
2019-04-03T20:13:41.307Z,6.60
2019-04-03T20:16:08.747Z,6.60
2019-04-03T20:18:36.250Z,6.70
2019-04-03T20:21:04.403Z,6.60
2019-04-03T20:23:32.063Z,6.50
2019-04-03T20:25:59.522Z,6.50
2019-04-03T20:28:27.047Z,6.50
2019-04-03T20:30:54.688Z,6.40
2019-04-03T20:33:22.082Z,6.40
2019-04-03T20:35:50.166Z,6.40
2019-04-03T20:38:17.793Z,6.40
2019-04-03T20:40:45.128Z,6.30
2019-04-03T20:43:12.530Z,6.30
2019-04-03T20:45:39.939Z,6.30
2019-04-03T20:48:07.331Z,6.30
2019-04-03T20:50:37.723Z,6.30
2019-04-03T20:53:04.379Z,6.20
2019-04-03T20:55:31.846Z,6.10
2019-04-03T20:57:59.286Z,6.00
2019-04-03T21:00:26.723Z,5.90
2019-04-03T21:02:54.116Z,5.90
2019-04-03T21:05:21.514Z,5.80
2019-04-03T21:07:48.991Z,5.70
2019-04-03T21:10:16.386Z,5.70
2019-04-03T21:12:43.781Z,5.60
2019-04-03T21:15:13.465Z,5.60
2019-04-03T21:17:40.436Z,5.50
2019-04-03T21:20:08.035Z,5.50
2019-04-03T21:22:35.463Z,5.40
2019-04-03T21:25:04.906Z,5.40
2019-04-03T21:27:32.159Z,5.40
2019-04-03T21:30:00.071Z,5.40
2019-04-03T21:32:28.786Z,5.40
2019-04-03T21:34:56.701Z,5.40
2019-04-03T21:37:25.576Z,5.40
2019-04-03T21:39:52.977Z,5.50
2019-04-03T21:42:20.384Z,5.50
2019-04-03T21:44:47.906Z,5.50
2019-04-03T21:47:15.324Z,5.50
2019-04-03T21:49:42.730Z,5.40
2019-04-03T21:52:10.145Z,5.30
2019-04-03T21:54:37.550Z,5.30
2019-04-03T21:57:06.775Z,5.30
2019-04-03T21:59:34.294Z,5.30
2019-04-03T22:02:01.702Z,5.30
2019-04-03T22:04:29.134Z,5.30
2019-04-03T22:06:57.841Z,5.20
2019-04-03T22:09:25.760Z,5.20
2019-04-03T22:11:53.159Z,5.10
2019-04-03T22:14:20.551Z,5.10
2019-04-03T22:16:50.581Z,5.00
2019-04-03T22:19:17.194Z,5.00
2019-04-03T22:21:44.586Z,5.00
2019-04-03T22:24:12.027Z,5.00
2019-04-03T22:26:40.772Z,5.00
2019-04-03T22:29:08.634Z,5.00
2019-04-03T22:31:36.082Z,5.00
2019-04-03T22:34:03.674Z,5.00
2019-04-03T22:36:33.376Z,5.00
2019-04-03T22:39:00.281Z,5.00
2019-04-03T22:41:27.828Z,4.90
2019-04-03T22:43:55.226Z,4.90
2019-04-03T22:46:23.344Z,4.90
2019-04-03T22:48:51.435Z,4.90
2019-04-03T22:51:18.763Z,4.90
2019-04-03T22:53:46.170Z,4.80
2019-04-03T22:56:16.429Z,4.80
2019-04-03T22:58:42.787Z,4.80
2019-04-03T23:01:10.206Z,4.80
2019-04-03T23:03:37.615Z,4.90
2019-04-03T23:06:05.043Z,4.90
2019-04-03T23:08:32.464Z,4.90
2019-04-03T23:11:01.377Z,4.90
2019-04-03T23:13:29.062Z,4.90
2019-04-03T23:15:56.499Z,4.90
2019-04-03T23:18:24.039Z,4.90
2019-04-03T23:20:52.846Z,4.90
2019-04-03T23:23:20.700Z,4.90
2019-04-03T23:25:48.410Z,4.80
2019-04-03T23:28:15.884Z,4.80
2019-04-03T23:30:43.426Z,4.80
2019-04-03T23:33:10.894Z,4.80
2019-04-03T23:35:38.366Z,4.80
2019-04-03T23:38:05.923Z,4.90
2019-04-03T23:40:34.742Z,4.90
2019-04-03T23:43:02.554Z,4.80
2019-04-03T23:45:31.110Z,4.80
2019-04-03T23:47:59.022Z,4.80
2019-04-03T23:50:26.480Z,4.80
2019-04-03T23:52:53.918Z,4.80
2019-04-03T23:55:21.363Z,4.80
2019-04-03T23:57:48.911Z,4.80
